Time;durP1;ratioP1;P1;durP2;ratioP2;P2;SDS_P1;SDS_P2;PMS_P1;PMS_P2;Temp;Humidity;BMP_temperature;BMP_pressure;BME280_temperature;BME280_humidity;BME280_pressure;Samples;Min_cycle;Max_cycle;Signal;HPM_P1;HPM_P2
2020/07/09 00:00:55;;;;;;;3.5;2.5;;;;;;;17.47;60.5791;95341.41;;;;
2020/07/09 00:01:55;;;;;;;3.5;2.5;;;;;;;17.47;60.5791;95341.41;;;;
2020/07/09 00:02:56;;;;;;;3.5;2.5;;;;;;;17.47;60.5791;95341.41;;;;
2020/07/09 00:03:56;;;;;;;3.5;2.5;;;;;;;17.47;60.5791;95341.41;;;;
2020/07/09 00:04:57;;;;;;;3.5;2.5;;;;;;;17.47;60.5791;95341.41;;;;
2020/07/09 00:05:57;;;;;;;3.5;2.5;;;;;;;17.47;60.5791;95341.41;;;;
2020/07/09 00:06:58;;;;;;;3.5;2.5;;;;;;;17.47;60.5791;95341.41;;;;
2020/07/09 00:07:58;;;;;;;3.5;2.5;;;;;;;17.47;60.5791;95341.41;;;;
2020/07/09 00:08:59;;;;;;;4.95;2.7;;;;;;;17.16;61.32324;95334.21;;;;
2020/07/09 00:09:59;;;;;;;4.95;2.7;;;;;;;17.16;61.32324;95334.21;;;;
2020/07/09 00:10:59;;;;;;;4.95;2.7;;;;;;;17.16;61.32324;95334.21;;;;
2020/07/09 00:12:00;;;;;;;4.95;2.7;;;;;;;17.16;61.32324;95334.21;;;;
2020/07/09 00:13:00;;;;;;;4.95;2.7;;;;;;;17.16;61.32324;95334.21;;;;
2020/07/09 00:14:01;;;;;;;4.95;2.7;;;;;;;17.16;61.32324;95334.21;;;;
2020/07/09 00:15:03;;;;;;;4.95;2.7;;;;;;;17.16;61.32324;95334.21;;;;
2020/07/09 00:16:04;;;;;;;4.95;2.7;;;;;;;17.16;61.32324;95334.21;;;;
2020/07/09 00:17:04;;;;;;;4.95;2.7;;;;;;;17.16;61.32324;95334.21;;;;
2020/07/09 00:18:04;;;;;;;4.95;2.7;;;;;;;17.16;61.32324;95334.21;;;;
2020/07/09 00:19:05;;;;;;;4.95;2.7;;;;;;;17.16;61.32324;95334.21;;;;
2020/07/09 00:20:05;;;;;;;5.2;2.4;;;;;;;17.08;62.01074;95333.42;;;;
2020/07/09 00:21:06;;;;;;;5.2;2.4;;;;;;;17.08;62.01074;95333.42;;;;
2020/07/09 00:22:06;;;;;;;5.2;2.4;;;;;;;17.08;62.01074;95333.42;;;;
2020/07/09 00:23:07;;;;;;;5.2;2.4;;;;;;;17.08;62.01074;95333.42;;;;
2020/07/09 00:24:07;;;;;;;5.2;2.4;;;;;;;17.08;62.01074;95333.42;;;;
2020/07/09 00:25:08;;;;;;;5.2;2.4;;;;;;;17.08;62.01074;95333.42;;;;
2020/07/09 00:26:08;;;;;;;5.2;2.4;;;;;;;17.08;62.01074;95333.42;;;;
2020/07/09 00:27:09;;;;;;;5.2;2.4;;;;;;;17.08;62.01074;95333.42;;;;
2020/07/09 00:28:09;;;;;;;5.2;2.4;;;;;;;17.08;62.01074;95333.42;;;;
2020/07/09 00:29:09;;;;;;;5.2;2.4;;;;;;;17.08;62.01074;95333.42;;;;
2020/07/09 00:30:10;;;;;;;5.9;2.65;;;;;;;17.05;62.22168;95335.89;;;;
2020/07/09 00:31:10;;;;;;;5.9;2.65;;;;;;;17.05;62.22168;95335.89;;;;
2020/07/09 00:32:11;;;;;;;5.9;2.65;;;;;;;17.05;62.22168;95335.89;;;;
2020/07/09 00:33:11;;;;;;;5.9;2.65;;;;;;;17.05;62.22168;95335.89;;;;
2020/07/09 00:34:12;;;;;;;5.9;2.65;;;;;;;17.05;62.22168;95335.89;;;;
2020/07/09 00:35:12;;;;;;;5.9;2.65;;;;;;;17.05;62.22168;95335.89;;;;
2020/07/09 00:36:13;;;;;;;5.9;2.65;;;;;;;17.05;62.22168;95335.89;;;;
2020/07/09 00:37:13;;;;;;;5.9;2.65;;;;;;;17.05;62.22168;95335.89;;;;
2020/07/09 00:38:14;;;;;;;5.9;2.65;;;;;;;17.05;62.22168;95335.89;;;;
2020/07/09 00:39:14;;;;;;;5.9;2.65;;;;;;;17.05;62.22168;95335.89;;;;
2020/07/09 00:40:15;;;;;;;5.9;2.65;;;;;;;17.05;62.22168;95335.89;;;;
2020/07/09 00:41:15;;;;;;;6.8;2.7;;;;;;;17.02;62.48047;95331.78;;;;
2020/07/09 00:42:16;;;;;;;6.8;2.7;;;;;;;17.02;62.48047;95331.78;;;;
2020/07/09 00:43:17;;;;;;;6.8;2.7;;;;;;;17.02;62.48047;95331.78;;;;
2020/07/09 00:44:17;;;;;;;6.8;2.7;;;;;;;17.02;62.48047;95331.78;;;;
2020/07/09 00:45:18;;;;;;;6.8;2.7;;;;;;;17.02;62.48047;95331.78;;;;
2020/07/09 00:46:18;;;;;;;6.8;2.7;;;;;;;17.02;62.48047;95331.78;;;;
2020/07/09 00:47:19;;;;;;;6.8;2.7;;;;;;;17.02;62.48047;95331.78;;;;
2020/07/09 00:48:19;;;;;;;6.8;2.7;;;;;;;17.02;62.48047;95331.78;;;;
2020/07/09 00:49:20;;;;;;;6.8;2.7;;;;;;;17.02;62.48047;95331.78;;;;
2020/07/09 00:50:20;;;;;;;6.8;2.7;;;;;;;17.02;62.48047;95331.78;;;;
2020/07/09 00:51:21;;;;;;;3.8;2.7;;;;;;;16.79;62.98145;95327.84;;;;
2020/07/09 00:52:22;;;;;;;3.8;2.7;;;;;;;16.79;62.98145;95327.84;;;;
2020/07/09 00:53:24;;;;;;;3.8;2.7;;;;;;;16.79;62.98145;95327.84;;;;
2020/07/09 00:54:25;;;;;;;3.8;2.7;;;;;;;16.79;62.98145;95327.84;;;;
2020/07/09 00:55:25;;;;;;;3.8;2.7;;;;;;;16.79;62.98145;95327.84;;;;
2020/07/09 00:56:26;;;;;;;3.8;2.7;;;;;;;16.79;62.98145;95327.84;;;;
2020/07/09 00:57:27;;;;;;;3.8;2.7;;;;;;;16.79;62.98145;95327.84;;;;
2020/07/09 00:58:27;;;;;;;3.8;2.7;;;;;;;16.79;62.98145;95327.84;;;;
2020/07/09 00:59:28;;;;;;;3.8;2.7;;;;;;;16.79;62.98145;95327.84;;;;
2020/07/09 01:00:28;;;;;;;3.8;2.7;;;;;;;16.79;62.98145;95327.84;;;;
2020/07/09 01:01:29;;;;;;;3.8;2.7;;;;;;;16.79;62.98145;95327.84;;;;
2020/07/09 01:02:29;;;;;;;4.4;2.75;;;;;;;16.52;63.79297;95317.22;;;;
2020/07/09 01:03:30;;;;;;;4.4;2.75;;;;;;;16.52;63.79297;95317.22;;;;
2020/07/09 01:04:30;;;;;;;4.4;2.75;;;;;;;16.52;63.79297;95317.22;;;;
2020/07/09 01:05:31;;;;;;;4.4;2.75;;;;;;;16.52;63.79297;95317.22;;;;
2020/07/09 01:06:31;;;;;;;4.4;2.75;;;;;;;16.52;63.79297;95317.22;;;;
2020/07/09 01:07:32;;;;;;;4.4;2.75;;;;;;;16.52;63.79297;95317.22;;;;
2020/07/09 01:08:32;;;;;;;4.4;2.75;;;;;;;16.52;63.79297;95317.22;;;;
2020/07/09 01:09:33;;;;;;;4.4;2.75;;;;;;;16.52;63.79297;95317.22;;;;
2020/07/09 01:10:33;;;;;;;4.4;2.75;;;;;;;16.52;63.79297;95317.22;;;;
2020/07/09 01:11:34;;;;;;;4.4;2.75;;;;;;;16.52;63.79297;95317.22;;;;
2020/07/09 01:12:34;;;;;;;4.450001;2.55;;;;;;;16.28;64.42188;95305.57;;;;
2020/07/09 01:13:35;;;;;;;4.450001;2.55;;;;;;;16.28;64.42188;95305.57;;;;
2020/07/09 01:14:35;;;;;;;4.450001;2.55;;;;;;;16.28;64.42188;95305.57;;;;
2020/07/09 01:15:36;;;;;;;4.450001;2.55;;;;;;;16.28;64.42188;95305.57;;;;
2020/07/09 01:16:36;;;;;;;4.450001;2.55;;;;;;;16.28;64.42188;95305.57;;;;
2020/07/09 01:17:37;;;;;;;4.450001;2.55;;;;;;;16.28;64.42188;95305.57;;;;
2020/07/09 01:18:37;;;;;;;4.450001;2.55;;;;;;;16.28;64.42188;95305.57;;;;
2020/07/09 01:19:38;;;;;;;4.450001;2.55;;;;;;;16.28;64.42188;95305.57;;;;
2020/07/09 01:20:38;;;;;;;4.450001;2.55;;;;;;;16.28;64.42188;95305.57;;;;
2020/07/09 01:21:39;;;;;;;4.450001;2.55;;;;;;;16.28;64.42188;95305.57;;;;
2020/07/09 01:22:39;;;;;;;4.450001;2.55;;;;;;;16.28;64.42188;95305.57;;;;
2020/07/09 01:23:40;;;;;;;4.1;2.7;;;;;;;16.23;64.90332;95313.75;;;;
2020/07/09 01:24:40;;;;;;;4.1;2.7;;;;;;;16.23;64.90332;95313.75;;;;
2020/07/09 01:25:41;;;;;;;4.1;2.7;;;;;;;16.23;64.90332;95313.75;;;;
2020/07/09 01:26:41;;;;;;;4.1;2.7;;;;;;;16.23;64.90332;95313.75;;;;
2020/07/09 01:27:42;;;;;;;4.1;2.7;;;;;;;16.23;64.90332;95313.75;;;;
2020/07/09 01:28:42;;;;;;;4.1;2.7;;;;;;;16.23;64.90332;95313.75;;;;
2020/07/09 01:29:43;;;;;;;4.1;2.7;;;;;;;16.23;64.90332;95313.75;;;;
2020/07/09 01:30:43;;;;;;;4.1;2.7;;;;;;;16.23;64.90332;95313.75;;;;
2020/07/09 01:31:44;;;;;;;4.1;2.7;;;;;;;16.23;64.90332;95313.75;;;;
2020/07/09 01:32:44;;;;;;;4.1;2.7;;;;;;;16.23;64.90332;95313.75;;;;
2020/07/09 01:33:48;;;;;;;5.15;2.55;;;;;;;16.09;65.31641;95319.03;;;;
2020/07/09 01:34:49;;;;;;;5.15;2.55;;;;;;;16.09;65.31641;95319.03;;;;
2020/07/09 01:35:51;;;;;;;5.15;2.55;;;;;;;16.09;65.31641;95319.03;;;;
2020/07/09 01:37:03;;;;;;;5.15;2.55;;;;;;;16.09;65.31641;95319.03;;;;
2020/07/09 01:38:27;;;;;;;5.15;2.55;;;;;;;16.09;65.31641;95319.03;;;;
2020/07/09 01:39:45;;;;;;;5.15;2.55;;;;;;;16.09;65.31641;95319.03;;;;
2020/07/09 01:40:55;;;;;;;5.15;2.55;;;;;;;16.09;65.31641;95319.03;;;;
2020/07/09 01:41:59;;;;;;;5.15;2.55;;;;;;;16.09;65.31641;95319.03;;;;
2020/07/09 01:43:02;;;;;;;5.15;2.55;;;;;;;16.09;65.31641;95319.03;;;;
2020/07/09 01:44:04;;;;;;;3.15;2.6;;;;;;;15.99;65.79199;95297.24;;;;
2020/07/09 01:45:05;;;;;;;3.15;2.6;;;;;;;15.99;65.79199;95297.24;;;;
2020/07/09 01:46:05;;;;;;;3.15;2.6;;;;;;;15.99;65.79199;95297.24;;;;
2020/07/09 01:47:06;;;;;;;3.15;2.6;;;;;;;15.99;65.79199;95297.24;;;;
2020/07/09 01:48:06;;;;;;;3.15;2.6;;;;;;;15.99;65.79199;95297.24;;;;
2020/07/09 01:49:07;;;;;;;3.15;2.6;;;;;;;15.99;65.79199;95297.24;;;;
2020/07/09 01:50:08;;;;;;;3.15;2.6;;;;;;;15.99;65.79199;95297.24;;;;
2020/07/09 01:51:10;;;;;;;3.15;2.6;;;;;;;15.99;65.79199;95297.24;;;;
2020/07/09 01:52:10;;;;;;;3.15;2.6;;;;;;;15.99;65.79199;95297.24;;;;
2020/07/09 01:53:10;;;;;;;3.15;2.6;;;;;;;15.99;65.79199;95297.24;;;;
2020/07/09 01:54:11;;;;;;;3.15;2.6;;;;;;;15.99;65.79199;95297.24;;;;
2020/07/09 01:55:11;;;;;;;3;2.4;;;;;;;15.83;66.45215;95310.91;;;;
2020/07/09 01:56:12;;;;;;;3;2.4;;;;;;;15.83;66.45215;95310.91;;;;
2020/07/09 01:57:12;;;;;;;3;2.4;;;;;;;15.83;66.45215;95310.91;;;;
2020/07/09 01:58:13;;;;;;;3;2.4;;;;;;;15.83;66.45215;95310.91;;;;
2020/07/09 01:59:13;;;;;;;3;2.4;;;;;;;15.83;66.45215;95310.91;;;;
2020/07/09 02:00:14;;;;;;;3;2.4;;;;;;;15.83;66.45215;95310.91;;;;
2020/07/09 02:01:14;;;;;;;3;2.4;;;;;;;15.83;66.45215;95310.91;;;;
2020/07/09 02:02:15;;;;;;;3;2.4;;;;;;;15.83;66.45215;95310.91;;;;
2020/07/09 02:03:15;;;;;;;3;2.4;;;;;;;15.83;66.45215;95310.91;;;;
2020/07/09 02:04:16;;;;;;;3;2.4;;;;;;;15.83;66.45215;95310.91;;;;
2020/07/09 02:05:16;;;;;;;4.15;2.7;;;;;;;15.78;66.97559;95306.41;;;;
2020/07/09 02:06:17;;;;;;;4.15;2.7;;;;;;;15.78;66.97559;95306.41;;;;
2020/07/09 02:07:17;;;;;;;4.15;2.7;;;;;;;15.78;66.97559;95306.41;;;;
2020/07/09 02:08:18;;;;;;;4.15;2.7;;;;;;;15.78;66.97559;95306.41;;;;
2020/07/09 02:09:18;;;;;;;4.15;2.7;;;;;;;15.78;66.97559;95306.41;;;;
2020/07/09 02:10:19;;;;;;;4.15;2.7;;;;;;;15.78;66.97559;95306.41;;;;
2020/07/09 02:11:19;;;;;;;4.15;2.7;;;;;;;15.78;66.97559;95306.41;;;;
2020/07/09 02:12:20;;;;;;;4.15;2.7;;;;;;;15.78;66.97559;95306.41;;;;
2020/07/09 02:13:20;;;;;;;4.15;2.7;;;;;;;15.78;66.97559;95306.41;;;;
2020/07/09 02:14:20;;;;;;;4.15;2.7;;;;;;;15.78;66.97559;95306.41;;;;
2020/07/09 02:15:21;;;;;;;4.15;2.7;;;;;;;15.78;66.97559;95306.41;;;;
2020/07/09 02:16:21;;;;;;;3.25;2.55;;;;;;;15.65;67.54297;95301.87;;;;
2020/07/09 02:17:22;;;;;;;3.25;2.55;;;;;;;15.65;67.54297;95301.87;;;;
2020/07/09 02:18:22;;;;;;;3.25;2.55;;;;;;;15.65;67.54297;95301.87;;;;
2020/07/09 02:19:23;;;;;;;3.25;2.55;;;;;;;15.65;67.54297;95301.87;;;;
2020/07/09 02:20:23;;;;;;;3.25;2.55;;;;;;;15.65;67.54297;95301.87;;;;
2020/07/09 02:21:24;;;;;;;3.25;2.55;;;;;;;15.65;67.54297;95301.87;;;;
2020/07/09 02:22:24;;;;;;;3.25;2.55;;;;;;;15.65;67.54297;95301.87;;;;
2020/07/09 02:23:24;;;;;;;3.25;2.55;;;;;;;15.65;67.54297;95301.87;;;;
2020/07/09 02:24:25;;;;;;;3.25;2.55;;;;;;;15.65;67.54297;95301.87;;;;
2020/07/09 02:25:26;;;;;;;3.25;2.55;;;;;;;15.65;67.54297;95301.87;;;;
2020/07/09 02:26:26;;;;;;;2.9;2.55;;;;;;;15.58;67.68457;95311.24;;;;
2020/07/09 02:27:27;;;;;;;2.9;2.55;;;;;;;15.58;67.68457;95311.24;;;;
2020/07/09 02:28:27;;;;;;;2.9;2.55;;;;;;;15.58;67.68457;95311.24;;;;
2020/07/09 02:29:28;;;;;;;2.9;2.55;;;;;;;15.58;67.68457;95311.24;;;;
2020/07/09 02:30:28;;;;;;;2.9;2.55;;;;;;;15.58;67.68457;95311.24;;;;
2020/07/09 02:31:29;;;;;;;2.9;2.55;;;;;;;15.58;67.68457;95311.24;;;;
2020/07/09 02:32:29;;;;;;;2.9;2.55;;;;;;;15.58;67.68457;95311.24;;;;
2020/07/09 02:33:30;;;;;;;2.9;2.55;;;;;;;15.58;67.68457;95311.24;;;;
2020/07/09 02:34:31;;;;;;;2.9;2.55;;;;;;;15.58;67.68457;95311.24;;;;
2020/07/09 02:35:31;;;;;;;2.9;2.55;;;;;;;15.58;67.68457;95311.24;;;;
2020/07/09 02:36:32;;;;;;;2.9;2.55;;;;;;;15.58;67.68457;95311.24;;;;
2020/07/09 02:37:32;;;;;;;3.6;2.6;;;;;;;15.42;68.19043;95315.39;;;;
2020/07/09 02:38:33;;;;;;;3.6;2.6;;;;;;;15.42;68.19043;95315.39;;;;
2020/07/09 02:39:33;;;;;;;3.6;2.6;;;;;;;15.42;68.19043;95315.39;;;;
2020/07/09 02:40:33;;;;;;;3.6;2.6;;;;;;;15.42;68.19043;95315.39;;;;
2020/07/09 02:41:34;;;;;;;3.6;2.6;;;;;;;15.42;68.19043;95315.39;;;;
2020/07/09 02:42:35;;;;;;;3.6;2.6;;;;;;;15.42;68.19043;95315.39;;;;
2020/07/09 02:43:35;;;;;;;3.6;2.6;;;;;;;15.42;68.19043;95315.39;;;;
2020/07/09 02:44:36;;;;;;;3.6;2.6;;;;;;;15.42;68.19043;95315.39;;;;
2020/07/09 02:45:36;;;;;;;3.6;2.6;;;;;;;15.42;68.19043;95315.39;;;;
2020/07/09 02:46:37;;;;;;;3.6;2.6;;;;;;;15.42;68.19043;95315.39;;;;
2020/07/09 02:47:37;;;;;;;3.75;2.65;;;;;;;15.32;68.65039;95325.37;;;;
2020/07/09 02:48:38;;;;;;;3.75;2.65;;;;;;;15.32;68.65039;95325.37;;;;
2020/07/09 02:49:38;;;;;;;3.75;2.65;;;;;;;15.32;68.65039;95325.37;;;;
2020/07/09 02:50:38;;;;;;;3.75;2.65;;;;;;;15.32;68.65039;95325.37;;;;
2020/07/09 02:51:39;;;;;;;3.75;2.65;;;;;;;15.32;68.65039;95325.37;;;;
2020/07/09 02:52:39;;;;;;;3.75;2.65;;;;;;;15.32;68.65039;95325.37;;;;
2020/07/09 02:53:40;;;;;;;3.75;2.65;;;;;;;15.32;68.65039;95325.37;;;;
2020/07/09 02:54:40;;;;;;;3.75;2.65;;;;;;;15.32;68.65039;95325.37;;;;
2020/07/09 02:55:41;;;;;;;3.75;2.65;;;;;;;15.32;68.65039;95325.37;;;;
2020/07/09 02:56:41;;;;;;;3.75;2.65;;;;;;;15.32;68.65039;95325.37;;;;
2020/07/09 02:57:42;;;;;;;3.75;2.65;;;;;;;15.32;68.65039;95325.37;;;;
2020/07/09 02:58:42;;;;;;;3.6;2.55;;;;;;;15.16;69.12305;95319.58;;;;
2020/07/09 02:59:43;;;;;;;3.6;2.55;;;;;;;15.16;69.12305;95319.58;;;;
2020/07/09 03:00:43;;;;;;;3.6;2.55;;;;;;;15.16;69.12305;95319.58;;;;
2020/07/09 03:01:44;;;;;;;3.6;2.55;;;;;;;15.16;69.12305;95319.58;;;;
2020/07/09 03:02:44;;;;;;;3.6;2.55;;;;;;;15.16;69.12305;95319.58;;;;
2020/07/09 03:03:45;;;;;;;3.6;2.55;;;;;;;15.16;69.12305;95319.58;;;;
2020/07/09 03:04:45;;;;;;;3.6;2.55;;;;;;;15.16;69.12305;95319.58;;;;
2020/07/09 03:05:46;;;;;;;3.6;2.55;;;;;;;15.16;69.12305;95319.58;;;;
2020/07/09 03:06:47;;;;;;;3.6;2.55;;;;;;;15.16;69.12305;95319.58;;;;
2020/07/09 03:07:48;;;;;;;3.6;2.55;;;;;;;15.16;69.12305;95319.58;;;;
2020/07/09 03:08:48;;;;;;;4.050001;2.7;;;;;;;15.07;69.65332;95323.72;;;;
2020/07/09 03:09:48;;;;;;;4.050001;2.7;;;;;;;15.07;69.65332;95323.72;;;;
2020/07/09 03:10:49;;;;;;;4.050001;2.7;;;;;;;15.07;69.65332;95323.72;;;;
2020/07/09 03:11:49;;;;;;;4.050001;2.7;;;;;;;15.07;69.65332;95323.72;;;;
2020/07/09 03:12:50;;;;;;;4.050001;2.7;;;;;;;15.07;69.65332;95323.72;;;;
2020/07/09 03:13:50;;;;;;;4.050001;2.7;;;;;;;15.07;69.65332;95323.72;;;;
2020/07/09 03:14:51;;;;;;;4.050001;2.7;;;;;;;15.07;69.65332;95323.72;;;;
2020/07/09 03:15:51;;;;;;;4.050001;2.7;;;;;;;15.07;69.65332;95323.72;;;;
2020/07/09 03:16:55;;;;;;;4.050001;2.7;;;;;;;15.07;69.65332;95323.72;;;;
2020/07/09 03:17:55;;;;;;;4.050001;2.7;;;;;;;15.07;69.65332;95323.72;;;;
2020/07/09 03:18:59;;;;;;;4.050001;2.7;;;;;;;15.07;69.65332;95323.72;;;;
2020/07/09 03:19:59;;;;;;;5.8;2.95;;;;;;;14.94;70.10742;95324.73;;;;
2020/07/09 03:21:00;;;;;;;5.8;2.95;;;;;;;14.94;70.10742;95324.73;;;;
2020/07/09 03:22:00;;;;;;;5.8;2.95;;;;;;;14.94;70.10742;95324.73;;;;
2020/07/09 03:23:01;;;;;;;5.8;2.95;;;;;;;14.94;70.10742;95324.73;;;;
2020/07/09 03:24:01;;;;;;;5.8;2.95;;;;;;;14.94;70.10742;95324.73;;;;
2020/07/09 03:25:02;;;;;;;5.8;2.95;;;;;;;14.94;70.10742;95324.73;;;;
2020/07/09 03:26:03;;;;;;;5.8;2.95;;;;;;;14.94;70.10742;95324.73;;;;
2020/07/09 03:27:03;;;;;;;5.8;2.95;;;;;;;14.94;70.10742;95324.73;;;;
2020/07/09 03:28:04;;;;;;;5.8;2.95;;;;;;;14.94;70.10742;95324.73;;;;
2020/07/09 03:29:04;;;;;;;5.8;2.95;;;;;;;14.94;70.10742;95324.73;;;;
2020/07/09 03:30:05;;;;;;;4.25;2.65;;;;;;;14.87;70.6377;95321.84;;;;
2020/07/09 03:31:05;;;;;;;4.25;2.65;;;;;;;14.87;70.6377;95321.84;;;;
2020/07/09 03:32:06;;;;;;;4.25;2.65;;;;;;;14.87;70.6377;95321.84;;;;
2020/07/09 03:33:07;;;;;;;4.25;2.65;;;;;;;14.87;70.6377;95321.84;;;;
2020/07/09 03:34:07;;;;;;;4.25;2.65;;;;;;;14.87;70.6377;95321.84;;;;
2020/07/09 03:35:08;;;;;;;4.25;2.65;;;;;;;14.87;70.6377;95321.84;;;;
2020/07/09 03:36:08;;;;;;;4.25;2.65;;;;;;;14.87;70.6377;95321.84;;;;
2020/07/09 03:37:08;;;;;;;4.25;2.65;;;;;;;14.87;70.6377;95321.84;;;;
2020/07/09 03:38:09;;;;;;;4.25;2.65;;;;;;;14.87;70.6377;95321.84;;;;
2020/07/09 03:39:09;;;;;;;4.25;2.65;;;;;;;14.87;70.6377;95321.84;;;;
2020/07/09 03:40:10;;;;;;;4.25;2.65;;;;;;;14.87;70.6377;95321.84;;;;
2020/07/09 03:41:10;;;;;;;3.55;2.55;;;;;;;14.81;71.04883;95330.2;;;;
2020/07/09 03:42:11;;;;;;;3.55;2.55;;;;;;;14.81;71.04883;95330.2;;;;
2020/07/09 03:43:11;;;;;;;3.55;2.55;;;;;;;14.81;71.04883;95330.2;;;;
2020/07/09 03:44:12;;;;;;;3.55;2.55;;;;;;;14.81;71.04883;95330.2;;;;
2020/07/09 03:45:13;;;;;;;3.55;2.55;;;;;;;14.81;71.04883;95330.2;;;;
2020/07/09 03:46:13;;;;;;;3.55;2.55;;;;;;;14.81;71.04883;95330.2;;;;
2020/07/09 03:47:13;;;;;;;3.55;2.55;;;;;;;14.81;71.04883;95330.2;;;;
2020/07/09 03:48:14;;;;;;;3.55;2.55;;;;;;;14.81;71.04883;95330.2;;;;
2020/07/09 03:49:15;;;;;;;3.55;2.55;;;;;;;14.81;71.04883;95330.2;;;;
2020/07/09 03:50:15;;;;;;;3.55;2.55;;;;;;;14.81;71.04883;95330.2;;;;
2020/07/09 03:51:15;;;;;;;5.05;2.5;;;;;;;14.83;71.29102;95328.46;;;;
2020/07/09 03:52:16;;;;;;;5.05;2.5;;;;;;;14.83;71.29102;95328.46;;;;
2020/07/09 03:53:17;;;;;;;5.05;2.5;;;;;;;14.83;71.29102;95328.46;;;;
2020/07/09 03:54:18;;;;;;;5.05;2.5;;;;;;;14.83;71.29102;95328.46;;;;
2020/07/09 03:55:18;;;;;;;5.05;2.5;;;;;;;14.83;71.29102;95328.46;;;;
2020/07/09 03:56:19;;;;;;;5.05;2.5;;;;;;;14.83;71.29102;95328.46;;;;
2020/07/09 03:57:19;;;;;;;5.05;2.5;;;;;;;14.83;71.29102;95328.46;;;;
2020/07/09 03:58:19;;;;;;;5.05;2.5;;;;;;;14.83;71.29102;95328.46;;;;
2020/07/09 03:59:21;;;;;;;5.05;2.5;;;;;;;14.83;71.29102;95328.46;;;;
2020/07/09 04:00:22;;;;;;;5.05;2.5;;;;;;;14.83;71.29102;95328.46;;;;
2020/07/09 04:01:22;;;;;;;5.05;2.5;;;;;;;14.83;71.29102;95328.46;;;;
2020/07/09 04:02:23;;;;;;;3.4;2.65;;;;;;;14.75;71.61133;95332.62;;;;
2020/07/09 04:03:23;;;;;;;3.4;2.65;;;;;;;14.75;71.61133;95332.62;;;;
2020/07/09 04:04:24;;;;;;;3.4;2.65;;;;;;;14.75;71.61133;95332.62;;;;
2020/07/09 04:05:24;;;;;;;3.4;2.65;;;;;;;14.75;71.61133;95332.62;;;;
2020/07/09 04:06:25;;;;;;;3.4;2.65;;;;;;;14.75;71.61133;95332.62;;;;
2020/07/09 04:07:25;;;;;;;3.4;2.65;;;;;;;14.75;71.61133;95332.62;;;;
2020/07/09 04:08:26;;;;;;;3.4;2.65;;;;;;;14.75;71.61133;95332.62;;;;
2020/07/09 04:09:26;;;;;;;3.4;2.65;;;;;;;14.75;71.61133;95332.62;;;;
2020/07/09 04:10:27;;;;;;;3.4;2.65;;;;;;;14.75;71.61133;95332.62;;;;
2020/07/09 04:11:27;;;;;;;3.4;2.65;;;;;;;14.75;71.61133;95332.62;;;;
2020/07/09 04:12:28;;;;;;;3.85;2.6;;;;;;;14.76;71.77832;95334.13;;;;
2020/07/09 04:13:28;;;;;;;3.85;2.6;;;;;;;14.76;71.77832;95334.13;;;;
2020/07/09 04:14:29;;;;;;;3.85;2.6;;;;;;;14.76;71.77832;95334.13;;;;
2020/07/09 04:15:29;;;;;;;3.85;2.6;;;;;;;14.76;71.77832;95334.13;;;;
2020/07/09 04:16:30;;;;;;;3.85;2.6;;;;;;;14.76;71.77832;95334.13;;;;
2020/07/09 04:17:31;;;;;;;3.85;2.6;;;;;;;14.76;71.77832;95334.13;;;;
2020/07/09 04:18:32;;;;;;;3.85;2.6;;;;;;;14.76;71.77832;95334.13;;;;
2020/07/09 04:19:34;;;;;;;3.85;2.6;;;;;;;14.76;71.77832;95334.13;;;;
2020/07/09 04:20:34;;;;;;;3.85;2.6;;;;;;;14.76;71.77832;95334.13;;;;
2020/07/09 04:21:35;;;;;;;3.85;2.6;;;;;;;14.76;71.77832;95334.13;;;;
2020/07/09 04:22:36;;;;;;;3.85;2.6;;;;;;;14.76;71.77832;95334.13;;;;
2020/07/09 04:23:36;;;;;;;4.2;2.75;;;;;;;14.73;71.97754;95346.48;;;;
2020/07/09 04:24:37;;;;;;;4.2;2.75;;;;;;;14.73;71.97754;95346.48;;;;
2020/07/09 04:25:38;;;;;;;4.2;2.75;;;;;;;14.73;71.97754;95346.48;;;;
2020/07/09 04:26:38;;;;;;;4.2;2.75;;;;;;;14.73;71.97754;95346.48;;;;
2020/07/09 04:27:39;;;;;;;4.2;2.75;;;;;;;14.73;71.97754;95346.48;;;;
2020/07/09 04:28:39;;;;;;;4.2;2.75;;;;;;;14.73;71.97754;95346.48;;;;
2020/07/09 04:29:40;;;;;;;4.2;2.75;;;;;;;14.73;71.97754;95346.48;;;;
2020/07/09 04:30:40;;;;;;;4.2;2.75;;;;;;;14.73;71.97754;95346.48;;;;
2020/07/09 04:31:41;;;;;;;4.2;2.75;;;;;;;14.73;71.97754;95346.48;;;;
2020/07/09 04:32:41;;;;;;;4.2;2.75;;;;;;;14.73;71.97754;95346.48;;;;
2020/07/09 04:33:42;;;;;;;3.95;2.7;;;;;;;14.84;72.38477;95356.33;;;;
2020/07/09 04:34:42;;;;;;;3.95;2.7;;;;;;;14.84;72.38477;95356.33;;;;
2020/07/09 04:35:42;;;;;;;3.95;2.7;;;;;;;14.84;72.38477;95356.33;;;;
2020/07/09 04:36:43;;;;;;;3.95;2.7;;;;;;;14.84;72.38477;95356.33;;;;
2020/07/09 04:37:43;;;;;;;3.95;2.7;;;;;;;14.84;72.38477;95356.33;;;;
2020/07/09 04:38:44;;;;;;;3.95;2.7;;;;;;;14.84;72.38477;95356.33;;;;
2020/07/09 04:39:44;;;;;;;3.95;2.7;;;;;;;14.84;72.38477;95356.33;;;;
2020/07/09 04:40:45;;;;;;;3.95;2.7;;;;;;;14.84;72.38477;95356.33;;;;
2020/07/09 04:41:45;;;;;;;3.95;2.7;;;;;;;14.84;72.38477;95356.33;;;;
2020/07/09 04:42:46;;;;;;;3.95;2.7;;;;;;;14.84;72.38477;95356.33;;;;
2020/07/09 04:43:46;;;;;;;3.95;2.7;;;;;;;14.84;72.38477;95356.33;;;;
2020/07/09 04:44:47;;;;;;;3.95;2.7;;;;;;;14.84;72.38477;95356.33;;;;
2020/07/09 04:45:47;;;;;;;3.95;2.7;;;;;;;14.84;72.38477;95356.33;;;;
2020/07/09 04:46:48;;;;;;;3.95;2.7;;;;;;;14.84;72.38477;95356.33;;;;
2020/07/09 04:47:48;;;;;;;3.95;2.7;;;;;;;14.84;72.38477;95356.33;;;;
2020/07/09 04:48:49;;;;;;;3.95;2.7;;;;;;;14.84;72.38477;95356.33;;;;
2020/07/09 04:49:49;;;;;;;3.95;2.7;;;;;;;14.84;72.38477;95356.33;;;;
2020/07/09 04:50:50;;;;;;;3.95;2.7;;;;;;;14.84;72.38477;95356.33;;;;
2020/07/09 04:51:50;;;;;;;3.95;2.7;;;;;;;14.84;72.38477;95356.33;;;;
2020/07/09 04:52:51;;;;;;;3.95;2.7;;;;;;;14.84;72.38477;95356.33;;;;
2020/07/09 04:53:51;;;;;;;3.95;2.7;;;;;;;14.84;72.38477;95356.33;;;;
2020/07/09 04:54:52;;;;;;;3.95;2.7;;;;;;;14.84;72.38477;95356.33;;;;
2020/07/09 04:55:52;;;;;;;3.75;2.55;;;;;;;15.44;72.09375;95367.24;;;;
2020/07/09 04:56:53;;;;;;;3.75;2.55;;;;;;;15.44;72.09375;95367.24;;;;
2020/07/09 04:57:53;;;;;;;3.75;2.55;;;;;;;15.44;72.09375;95367.24;;;;
2020/07/09 04:58:54;;;;;;;3.75;2.55;;;;;;;15.44;72.09375;95367.24;;;;
2020/07/09 04:59:54;;;;;;;3.75;2.55;;;;;;;15.44;72.09375;95367.24;;;;
2020/07/09 05:00:54;;;;;;;3.75;2.55;;;;;;;15.44;72.09375;95367.24;;;;
2020/07/09 05:01:55;;;;;;;3.75;2.55;;;;;;;15.44;72.09375;95367.24;;;;
2020/07/09 05:02:55;;;;;;;3.75;2.55;;;;;;;15.44;72.09375;95367.24;;;;
2020/07/09 05:03:56;;;;;;;3.75;2.55;;;;;;;15.44;72.09375;95367.24;;;;
2020/07/09 05:04:56;;;;;;;3.75;2.55;;;;;;;15.44;72.09375;95367.24;;;;
2020/07/09 05:05:57;;;;;;;4;2.5;;;;;;;15.76;71.89551;95362.64;;;;
2020/07/09 05:06:57;;;;;;;4;2.5;;;;;;;15.76;71.89551;95362.64;;;;
2020/07/09 05:07:58;;;;;;;4;2.5;;;;;;;15.76;71.89551;95362.64;;;;
2020/07/09 05:08:58;;;;;;;4;2.5;;;;;;;15.76;71.89551;95362.64;;;;
2020/07/09 05:10:00;;;;;;;4;2.5;;;;;;;15.76;71.89551;95362.64;;;;
2020/07/09 05:11:01;;;;;;;4;2.5;;;;;;;15.76;71.89551;95362.64;;;;
2020/07/09 05:12:01;;;;;;;4;2.5;;;;;;;15.76;71.89551;95362.64;;;;
2020/07/09 05:13:02;;;;;;;4;2.5;;;;;;;15.76;71.89551;95362.64;;;;
2020/07/09 05:14:02;;;;;;;4;2.5;;;;;;;15.76;71.89551;95362.64;;;;
2020/07/09 05:15:03;;;;;;;4;2.5;;;;;;;15.76;71.89551;95362.64;;;;
2020/07/09 05:16:04;;;;;;;4;2.5;;;;;;;15.76;71.89551;95362.64;;;;
2020/07/09 05:17:04;;;;;;;2.85;2.5;;;;;;;16.24;71.68262;95359.38;;;;
2020/07/09 05:18:04;;;;;;;2.85;2.5;;;;;;;16.24;71.68262;95359.38;;;;
2020/07/09 05:19:05;;;;;;;2.85;2.5;;;;;;;16.24;71.68262;95359.38;;;;
2020/07/09 05:20:05;;;;;;;2.85;2.5;;;;;;;16.24;71.68262;95359.38;;;;
2020/07/09 05:21:06;;;;;;;2.85;2.5;;;;;;;16.24;71.68262;95359.38;;;;
2020/07/09 05:22:07;;;;;;;2.85;2.5;;;;;;;16.24;71.68262;95359.38;;;;
2020/07/09 05:23:07;;;;;;;2.85;2.5;;;;;;;16.24;71.68262;95359.38;;;;
2020/07/09 05:24:08;;;;;;;2.85;2.5;;;;;;;16.24;71.68262;95359.38;;;;
2020/07/09 05:25:08;;;;;;;2.85;2.5;;;;;;;16.24;71.68262;95359.38;;;;
2020/07/09 05:26:09;;;;;;;2.85;2.5;;;;;;;16.24;71.68262;95359.38;;;;
2020/07/09 05:27:09;;;;;;;4.8;2.3;;;;;;;16.77;71.28809;95374.61;;;;
2020/07/09 05:28:10;;;;;;;4.8;2.3;;;;;;;16.77;71.28809;95374.61;;;;
2020/07/09 05:29:10;;;;;;;4.8;2.3;;;;;;;16.77;71.28809;95374.61;;;;
2020/07/09 05:30:15;;;;;;;4.8;2.3;;;;;;;16.77;71.28809;95374.61;;;;
2020/07/09 05:31:15;;;;;;;4.8;2.3;;;;;;;16.77;71.28809;95374.61;;;;
2020/07/09 05:32:16;;;;;;;4.8;2.3;;;;;;;16.77;71.28809;95374.61;;;;
2020/07/09 05:33:16;;;;;;;4.8;2.3;;;;;;;16.77;71.28809;95374.61;;;;
2020/07/09 05:34:17;;;;;;;4.8;2.3;;;;;;;16.77;71.28809;95374.61;;;;
2020/07/09 05:35:17;;;;;;;4.8;2.3;;;;;;;16.77;71.28809;95374.61;;;;
2020/07/09 05:36:18;;;;;;;4.8;2.3;;;;;;;16.77;71.28809;95374.61;;;;
2020/07/09 05:37:18;;;;;;;4.8;2.3;;;;;;;16.77;71.28809;95374.61;;;;
2020/07/09 05:38:19;;;;;;;2.6;2.05;;;;;;;17.36;70.77441;95380.17;;;;
2020/07/09 05:39:19;;;;;;;2.6;2.05;;;;;;;17.36;70.77441;95380.17;;;;
2020/07/09 05:40:20;;;;;;;2.6;2.05;;;;;;;17.36;70.77441;95380.17;;;;
2020/07/09 05:41:20;;;;;;;2.6;2.05;;;;;;;17.36;70.77441;95380.17;;;;
2020/07/09 05:42:21;;;;;;;2.6;2.05;;;;;;;17.36;70.77441;95380.17;;;;
2020/07/09 05:43:21;;;;;;;2.6;2.05;;;;;;;17.36;70.77441;95380.17;;;;
2020/07/09 05:44:21;;;;;;;2.6;2.05;;;;;;;17.36;70.77441;95380.17;;;;
2020/07/09 05:45:22;;;;;;;2.6;2.05;;;;;;;17.36;70.77441;95380.17;;;;
2020/07/09 05:46:22;;;;;;;2.6;2.05;;;;;;;17.36;70.77441;95380.17;;;;
2020/07/09 05:47:23;;;;;;;2.6;2.05;;;;;;;17.36;70.77441;95380.17;;;;
2020/07/09 05:48:23;;;;;;;5.699999;2;;;;;;;18.03;69.80371;95390.12;;;;